This is the latest recevied weather packets stored in our database for station/object N6DZK. If no packets are shown the sender has not sent any weather packets the latest 1 day(s).
| Time | Temp. | Humidity | Pressure | Rain* | Wind** | Luminosity | Snow |
|---|---|---|---|---|---|---|---|
| 1778096326 | 23.89° C | 49% | 1019.3 hPa | 0 mm | - | 1018 W/m² | - |
| 1778095719 | 23.89° C | 51% | 1019.6 hPa | 0 mm | - | 1012 W/m² | - |
| 1778095416 | 23.33° C | 52% | 1019.4 hPa | 0 mm | - | 1011 W/m² | - |
| 1778095113 | 23.89° C | 51% | 1019.5 hPa | 0 mm | - | 1005 W/m² | - |
| 1778092991 | 22.22° C | 54% | 1019.8 hPa | 0 mm | - | 962 W/m² | - |
| 1778092688 | 22.78° C | 52% | 1019.7 hPa | 0 mm | - | 955 W/m² | - |
| 1778090262 | 22.22° C | 54% | 1020 hPa | 0 mm | - | 889 W/m² | - |
| 1778089959 | 22.22° C | 56% | 1020 hPa | 0 mm | - | 875 W/m² | - |
| 1778086325 | 20.56° C | 57% | 1020.1 hPa | 0 mm | - | 682 W/m² | - |
| 1778084807 | 20° C | 60% | 1020.4 hPa | 0 mm | - | 610 W/m² | - |
| 1778080644 | 17.22° C | 69% | 1020.8 hPa | 0 mm | - | 284 W/m² | - |
| 1778080036 | 17.22° C | 69% | 1020.8 hPa | 0 mm | - | 229 W/m² | - |
| 1778078521 | 12.22° C | 92% | 1021 hPa | 0 mm | - | 106 W/m² | - |
| 1778076708 | 11.67° C | 96% | 1020.6 hPa | 0 mm | - | 57 W/m² | - |
| 1778076405 | 11.67° C | 97% | 1020.7 hPa | 0 mm | - | 69 W/m² | - |
| 1778075192 | 8.89° C | 96% | 1020.4 hPa | 0 mm | - | 36 W/m² | - |
| 1778071860 | 8.89° C | 96% | 1019.8 hPa | 0 mm | - | 0 W/m² | - |
| 1778071255 | 8.89° C | 95% | 1019.7 hPa | 0 mm | - | 0 W/m² | - |
| 1778070651 | 8.89° C | 95% | 1019.6 hPa | 0 mm | - | 0 W/m² | - |
| 1778070347 | 8.89° C | 95% | 1019.6 hPa | 0 mm | - | 0 W/m² | - |
| 1778069137 | 8.89° C | 95% | 1019.6 hPa | 0 mm | - | 0 W/m² | - |
| 1778068834 | 8.89° C | 95% | 1019.7 hPa | 0 mm | - | 0 W/m² | - |
| 1778068532 | 8.89° C | 95% | 1019.6 hPa | 0 mm | - | 0 W/m² | - |
| 1778067927 | 8.89° C | 95% | 1019.4 hPa | 0 mm | - | 0 W/m² | - |
| 1778067323 | 8.89° C | 95% | 1019.3 hPa | 0 mm | - | 0 W/m² | - |
* Rain latest hour (hover to see other rain measurements)
** Current wind speed in m/s (hover to see current wind gust speed)